Time;durP1;ratioP1;P1;durP2;ratioP2;P2;SDS_P1;SDS_P2;PMS_P1;PMS_P2;Temp;Humidity;BMP_temperature;BMP_pressure;BME280_temperature;BME280_humidity;BME280_pressure;Samples;Min_cycle;Max_cycle;Signal;HPM_P1;HPM_P2
2023/11/18 00:02:14;;;;;;;4.83;4.43;;;5.20;99.90;;;;;;5087392;28;20203;-66
2023/11/18 00:04:41;;;;;;;5.37;4.97;;;5.20;99.90;;;;;;5078833;28;20214;-66
2023/11/18 00:07:08;;;;;;;5.23;4.67;;;5.10;99.90;;;;;;5084981;28;20705;-66
2023/11/18 00:09:35;;;;;;;5.47;4.83;;;5.10;99.90;;;;;;5087198;28;20203;-66
2023/11/18 00:12:03;;;;;;;5.77;5.27;;;5.10;99.90;;;;;;5076321;28;20759;-66
2023/11/18 00:14:32;;;;;;;5.40;5.00;;;5.10;99.90;;;;;;5076232;28;20203;-66
2023/11/18 00:16:59;;;;;;;7.10;4.37;;;5.00;99.90;;;;;;5086943;28;20218;-66
2023/11/18 00:19:26;;;;;;;5.13;4.63;;;5.10;99.90;;;;;;5087576;28;20202;-67
2023/11/18 00:21:53;;;;;;;4.63;4.23;;;5.10;99.90;;;;;;5087075;28;20259;-66
2023/11/18 00:24:21;;;;;;;5.43;4.90;;;5.10;99.90;;;;;;5087713;28;20318;-66
2023/11/18 00:26:48;;;;;;;5.10;4.77;;;5.10;99.90;;;;;;5087841;28;20258;-66
2023/11/18 00:29:14;;;;;;;5.10;4.70;;;5.00;99.90;;;;;;5087107;28;20733;-66
2023/11/18 00:31:42;;;;;;;5.10;4.70;;;5.00;99.90;;;;;;5086866;28;20202;-66
2023/11/18 00:34:10;;;;;;;5.27;4.87;;;5.00;99.90;;;;;;5087386;28;20305;-66
2023/11/18 00:36:37;;;;;;;5.27;4.87;;;5.00;99.90;;;;;;5087247;28;20223;-66
2023/11/18 00:39:05;;;;;;;5.60;5.10;;;5.00;99.90;;;;;;5085924;28;20239;-66
2023/11/18 00:41:32;;;;;;;5.33;4.83;;;5.00;99.90;;;;;;5086942;28;20203;-66
2023/11/18 00:43:58;;;;;;;4.90;4.50;;;5.00;99.90;;;;;;5086957;28;20317;-66
2023/11/18 00:46:25;;;;;;;5.27;4.77;;;5.00;99.90;;;;;;5086287;28;20221;-66
2023/11/18 00:48:54;;;;;;;5.17;4.67;;;5.00;99.90;;;;;;5086280;28;20291;-66
2023/11/18 00:51:20;;;;;;;5.90;5.40;;;5.00;99.90;;;;;;5086844;28;20254;-66
2023/11/18 00:53:47;;;;;;;5.53;5.03;;;5.00;99.90;;;;;;5086640;28;20202;-66
2023/11/18 00:56:17;;;;;;;5.07;4.67;;;5.00;99.90;;;;;;5086939;28;20203;-66
2023/11/18 00:58:44;;;;;;;4.87;4.30;;;5.00;99.90;;;;;;5066669;28;20200;-66
2023/11/18 01:01:11;;;;;;;5.90;4.63;;;5.00;99.90;;;;;;5066528;28;20286;-66
2023/11/18 01:03:38;;;;;;;4.90;4.50;;;5.00;99.90;;;;;;5069228;28;20202;-66
2023/11/18 01:06:07;;;;;;;5.17;4.67;;;5.00;99.90;;;;;;5086118;28;20210;-66
2023/11/18 01:08:34;;;;;;;4.87;4.47;;;5.00;99.90;;;;;;5085752;28;20316;-67
2023/11/18 01:11:01;;;;;;;4.53;4.23;;;5.00;99.90;;;;;;5085652;28;20757;-66
2023/11/18 01:13:27;;;;;;;4.90;4.43;;;5.00;99.90;;;;;;5085598;28;20638;-66
2023/11/18 01:15:55;;;;;;;5.07;4.67;;;5.00;99.90;;;;;;5085819;28;20253;-66
2023/11/18 01:18:22;;;;;;;4.73;4.43;;;5.00;99.90;;;;;;5085569;28;20297;-66
2023/11/18 01:20:48;;;;;;;5.00;4.60;;;5.00;99.90;;;;;;5085912;28;20639;-66
2023/11/18 01:23:17;;;;;;;4.67;4.27;;;5.00;99.90;;;;;;5086139;28;20298;-66
2023/11/18 01:25:44;;;;;;;5.13;4.67;;;5.00;99.90;;;;;;5085900;28;20644;-66
2023/11/18 01:28:10;;;;;;;5.47;5.07;;;5.00;99.90;;;;;;5085946;28;20270;-66
2023/11/18 01:30:37;;;;;;;5.43;5.03;;;5.10;99.90;;;;;;5085378;28;20515;-66
2023/11/18 01:33:04;;;;;;;5.13;4.73;;;5.10;99.90;;;;;;5085517;28;20744;-66
2023/11/18 01:35:31;;;;;;;5.07;4.70;;;5.10;99.90;;;;;;5085865;28;20530;-66
2023/11/18 01:37:58;;;;;;;5.90;5.30;;;5.00;99.90;;;;;;5085839;28;20630;-66
2023/11/18 01:40:30;;;;;;;5.73;5.17;;;5.00;99.90;;;;;;5085358;28;20210;-66
2023/11/18 01:42:57;;;;;;;6.77;5.70;;;5.00;99.90;;;;;;5085258;28;20227;-66
2023/11/18 01:45:26;;;;;;;5.93;5.43;;;5.00;99.90;;;;;;5085391;28;20314;-66
2023/11/18 01:47:54;;;;;;;5.53;5.13;;;5.00;99.90;;;;;;5085251;28;20238;-66
2023/11/18 01:50:21;;;;;;;6.07;5.43;;;5.00;99.90;;;;;;5085109;28;20209;-66
2023/11/18 01:52:49;;;;;;;6.30;5.70;;;5.00;99.90;;;;;;5085414;28;20211;-66
2023/11/18 01:55:16;;;;;;;6.17;5.57;;;5.00;99.90;;;;;;5085280;28;20213;-66
2023/11/18 01:57:45;;;;;;;6.00;5.53;;;5.00;99.90;;;;;;5085430;28;20210;-66
2023/11/18 02:00:13;;;;;;;6.10;5.50;;;5.00;99.90;;;;;;5085311;28;20207;-66
2023/11/18 02:02:40;;;;;;;6.70;5.60;;;5.00;99.90;;;;;;5084891;28;20230;-66
2023/11/18 02:05:07;;;;;;;5.70;5.27;;;5.00;99.90;;;;;;5084906;28;20202;-66
2023/11/18 02:07:36;;;;;;;6.17;5.57;;;5.00;99.90;;;;;;5084694;28;20322;-66
2023/11/18 02:10:03;;;;;;;5.67;5.17;;;5.10;99.90;;;;;;5085334;28;20210;-66
2023/11/18 02:12:42;;;;;;;6.37;5.77;;;5.10;99.90;;;;;;5085517;28;20202;-66
2023/11/18 02:15:12;;;;;;;5.90;5.40;;;5.00;99.90;;;;;;5085289;28;20573;-66
2023/11/18 02:17:42;;;;;;;6.03;5.53;;;5.00;99.90;;;;;;5084451;28;20203;-66
2023/11/18 02:20:15;;;;;;;5.50;5.00;;;5.00;99.90;;;;;;5084935;28;20191;-66
2023/11/18 02:22:43;;;;;;;6.47;5.63;;;5.00;99.90;;;;;;5085014;28;20267;-65
2023/11/18 02:25:11;;;;;;;7.07;5.37;;;5.00;99.90;;;;;;5084964;28;20297;-65
2023/11/18 02:27:39;;;;;;;6.03;5.57;;;5.00;99.90;;;;;;5084881;28;20230;-66
2023/11/18 02:30:12;;;;;;;5.63;5.13;;;5.00;99.90;;;;;;5085096;28;20570;-66
2023/11/18 02:32:46;;;;;;;6.20;5.73;;;5.00;99.90;;;;;;5084665;28;20201;-66
2023/11/18 02:35:19;;;;;;;6.43;5.83;;;5.00;99.90;;;;;;5084960;28;20652;-66
2023/11/18 02:37:51;;;;;;;6.10;5.60;;;5.00;99.90;;;;;;5085381;28;20190;-66
2023/11/18 02:40:21;;;;;;;6.00;5.40;;;5.00;99.90;;;;;;5070372;28;20650;-66
2023/11/18 02:42:52;;;;;;;6.17;5.67;;;5.00;99.90;;;;;;5085005;28;20333;-66
2023/11/18 02:45:21;;;;;;;6.03;5.50;;;5.00;99.90;;;;;;5084534;28;20202;-66
2023/11/18 02:47:48;;;;;;;6.63;6.03;;;5.00;99.90;;;;;;5084672;28;20325;-66
2023/11/18 02:50:19;;;;;;;6.60;5.83;;;5.00;99.90;;;;;;5084604;28;20245;-66
2023/11/18 02:52:46;;;;;;;5.93;5.50;;;5.00;99.90;;;;;;5084887;28;20213;-66
2023/11/18 02:55:13;;;;;;;6.03;5.43;;;5.00;99.90;;;;;;5084213;28;20297;-66
2023/11/18 02:57:40;;;;;;;6.93;5.63;;;5.00;99.90;;;;;;5084201;28;20347;-67
2023/11/18 03:00:21;;;;;;;8.13;6.43;;;5.00;99.90;;;;;;5084367;28;20856;-66
2023/11/18 03:02:51;;;;;;;5.80;5.30;;;5.00;99.90;;;;;;5087340;28;20822;-66
2023/11/18 03:05:18;;;;;;;5.87;5.47;;;5.10;99.90;;;;;;5085545;28;20923;-66
2023/11/18 03:07:49;;;;;;;5.97;5.37;;;5.10;99.90;;;;;;5068648;28;20245;-66
2023/11/18 03:10:20;;;;;;;5.63;5.13;;;5.10;99.90;;;;;;5088651;28;20302;-66
2023/11/18 03:12:48;;;;;;;5.60;5.20;;;5.10;99.90;;;;;;5088233;28;20835;-67
2023/11/18 03:15:17;;;;;;;5.97;5.47;;;5.10;99.90;;;;;;5088035;28;20681;-66
2023/11/18 03:17:45;;;;;;;5.30;4.90;;;5.10;99.90;;;;;;5088414;28;20215;-66
2023/11/18 03:20:16;;;;;;;5.77;5.23;;;5.00;99.90;;;;;;5088294;28;20218;-66
2023/11/18 03:22:44;;;;;;;6.53;5.93;;;5.00;99.90;;;;;;5088262;28;20253;-66
2023/11/18 03:25:11;;;;;;;6.23;5.47;;;4.90;99.90;;;;;;5075741;28;20407;-66
2023/11/18 03:27:38;;;;;;;6.10;5.60;;;4.90;99.90;;;;;;5087756;28;20237;-66
2023/11/18 03:30:07;;;;;;;6.13;5.53;;;4.80;99.90;;;;;;5104391;28;20202;-66
2023/11/18 03:32:36;;;;;;;9.77;5.70;;;4.80;99.90;;;;;;5098688;28;20684;-66
2023/11/18 03:35:04;;;;;;;7.17;6.03;;;4.80;99.90;;;;;;5087845;28;20242;-66
2023/11/18 03:37:31;;;;;;;6.33;5.73;;;4.80;99.90;;;;;;5087931;28;20207;-66
2023/11/18 03:39:58;;;;;;;6.93;6.33;;;4.80;99.90;;;;;;5087256;28;20257;-66
2023/11/18 03:42:25;;;;;;;7.97;5.70;;;4.80;99.90;;;;;;5087181;28;20219;-66
2023/11/18 03:44:52;;;;;;;6.83;6.13;;;4.80;99.90;;;;;;5087415;28;20293;-66
2023/11/18 03:47:19;;;;;;;6.27;5.67;;;4.70;99.90;;;;;;5087264;28;20294;-66
2023/11/18 03:49:47;;;;;;;7.43;6.67;;;4.70;99.90;;;;;;5087462;28;20297;-66
2023/11/18 03:52:14;;;;;;;7.40;6.67;;;4.70;99.90;;;;;;5067258;28;20298;-66
2023/11/18 03:54:41;;;;;;;7.80;6.67;;;4.70;99.90;;;;;;5067127;28;20347;-66
2023/11/18 03:57:08;;;;;;;7.17;6.50;;;4.70;99.90;;;;;;5081643;28;20607;-66
2023/11/18 03:59:35;;;;;;;7.47;6.67;;;4.70;99.90;;;;;;5097018;28;20202;-66
2023/11/18 04:02:02;;;;;;;7.87;7.00;;;4.70;99.90;;;;;;5100472;28;20297;-66
2023/11/18 04:04:29;;;;;;;7.20;6.60;;;4.70;99.90;;;;;;5087043;28;20199;-66
2023/11/18 04:07:00;;;;;;;7.97;7.13;;;4.70;99.90;;;;;;5087260;28;20250;-66
2023/11/18 04:09:27;;;;;;;7.60;6.80;;;4.60;99.90;;;;;;5087356;28;20228;-67
2023/11/18 04:11:54;;;;;;;7.43;6.73;;;4.70;99.90;;;;;;5087497;28;20245;-66
2023/11/18 04:14:21;;;;;;;7.40;6.70;;;4.70;99.90;;;;;;5087066;28;20210;-67
2023/11/18 04:16:48;;;;;;;7.43;6.63;;;4.70;99.90;;;;;;5087355;28;20252;-66
2023/11/18 04:19:15;;;;;;;7.57;6.77;;;4.70;99.90;;;;;;5087052;28;20684;-66
2023/11/18 04:21:43;;;;;;;7.53;6.83;;;4.70;99.90;;;;;;5087155;28;20217;-66
2023/11/18 04:24:11;;;;;;;8.27;6.50;;;4.70;99.90;;;;;;5080566;28;20203;-66
2023/11/18 04:26:38;;;;;;;7.23;6.60;;;4.80;99.90;;;;;;5086732;28;20298;-66
2023/11/18 04:29:05;;;;;;;7.23;6.53;;;4.80;99.90;;;;;;5087251;28;20317;-66
2023/11/18 04:31:34;;;;;;;7.20;6.50;;;4.80;99.90;;;;;;5086583;28;20309;-66
2023/11/18 04:34:00;;;;;;;7.33;6.60;;;4.80;99.90;;;;;;5087079;28;20202;-66
2023/11/18 04:36:28;;;;;;;7.33;6.63;;;4.80;99.90;;;;;;5086902;28;20217;-66
2023/11/18 04:38:55;;;;;;;8.00;7.10;;;4.80;99.90;;;;;;5086594;28;20234;-66
2023/11/18 04:41:24;;;;;;;6.60;6.03;;;4.70;99.90;;;;;;5086722;28;20257;-66
2023/11/18 04:43:50;;;;;;;6.93;6.23;;;4.80;99.90;;;;;;5087196;28;20203;-66
2023/11/18 04:46:21;;;;;;;7.00;6.30;;;4.80;99.90;;;;;;5086742;28;20211;-66
2023/11/18 04:48:48;;;;;;;6.53;5.93;;;4.80;99.90;;;;;;5086565;28;20227;-66
2023/11/18 04:51:17;;;;;;;6.87;6.20;;;4.70;99.90;;;;;;5086646;28;20205;-66
2023/11/18 04:53:44;;;;;;;6.97;6.37;;;4.70;99.90;;;;;;5086842;28;20477;-66
2023/11/18 04:56:11;;;;;;;6.73;6.00;;;4.70;99.90;;;;;;5086449;28;20203;-66
2023/11/18 04:58:40;;;;;;;7.00;6.30;;;4.70;99.90;;;;;;5085709;28;20612;-66
2023/11/18 05:01:06;;;;;;;7.03;5.97;;;4.60;99.90;;;;;;5086271;28;20219;-66
2023/11/18 05:03:33;;;;;;;6.70;5.97;;;4.60;99.90;;;;;;5086149;28;20570;-66
2023/11/18 05:06:00;;;;;;;8.13;6.20;;;4.60;99.90;;;;;;5086369;28;20217;-66
2023/11/18 05:08:27;;;;;;;6.80;6.07;;;4.60;99.90;;;;;;5085601;28;20238;-67
2023/11/18 05:10:54;;;;;;;7.10;5.93;;;4.60;99.90;;;;;;5085864;28;20297;-66
2023/11/18 05:13:21;;;;;;;6.80;6.20;;;4.70;99.90;;;;;;5085974;28;20210;-66
2023/11/18 05:15:54;;;;;;;6.73;6.10;;;4.60;99.90;;;;;;5086292;28;20207;-66
2023/11/18 05:18:21;;;;;;;6.37;5.77;;;4.60;99.90;;;;;;5086135;28;20689;-66
2023/11/18 05:20:48;;;;;;;6.90;6.30;;;4.70;99.90;;;;;;5085839;28;20355;-66
2023/11/18 05:23:15;;;;;;;6.23;5.63;;;4.70;99.90;;;;;;5085886;28;20226;-66
2023/11/18 05:25:43;;;;;;;6.23;5.67;;;4.70;99.90;;;;;;5085383;28;20306;-66
2023/11/18 05:28:09;;;;;;;6.50;5.90;;;4.70;99.90;;;;;;5086025;28;20234;-66
2023/11/18 05:30:36;;;;;;;6.60;5.87;;;4.70;99.90;;;;;;5085724;28;20289;-66
2023/11/18 05:33:05;;;;;;;6.80;5.87;;;4.70;99.90;;;;;;5085693;28;20206;-67
2023/11/18 05:35:32;;;;;;;5.87;5.40;;;4.70;99.90;;;;;;5085912;28;20210;-66
2023/11/18 05:37:59;;;;;;;6.47;5.63;;;4.70;99.90;;;;;;5085951;28;20219;-66
2023/11/18 05:40:28;;;;;;;6.80;6.10;;;4.70;99.90;;;;;;5085818;28;20291;-66
2023/11/18 05:42:55;;;;;;;6.73;6.13;;;4.70;99.90;;;;;;5085416;28;20222;-66
2023/11/18 05:45:31;;;;;;;6.50;5.90;;;4.60;99.90;;;;;;5085286;28;20469;-66
2023/11/18 05:47:58;;;;;;;7.00;6.30;;;4.70;99.90;;;;;;5085710;28;20190;-66
2023/11/18 05:50:26;;;;;;;6.80;6.20;;;4.70;99.90;;;;;;5085670;28;20289;-66
2023/11/18 05:52:54;;;;;;;7.93;7.17;;;4.70;99.90;;;;;;5085629;28;20728;-66
2023/11/18 05:55:21;;;;;;;8.07;6.57;;;4.70;99.90;;;;;;5079629;28;20757;-67
2023/11/18 05:57:48;;;;;;;7.23;6.40;;;4.70;99.90;;;;;;5080624;28;20199;-66
2023/11/18 06:00:19;;;;;;;7.20;6.50;;;4.70;99.90;;;;;;5085384;28;20790;-66
2023/11/18 06:02:45;;;;;;;6.87;6.27;;;4.70;99.90;;;;;;5085718;28;20195;-66
2023/11/18 06:05:14;;;;;;;8.93;6.70;;;4.70;99.90;;;;;;5085509;28;20202;-67
2023/11/18 06:07:43;;;;;;;7.43;6.17;;;4.70;99.90;;;;;;5084732;28;20231;-66
2023/11/18 06:10:11;;;;;;;7.47;6.60;;;4.70;99.90;;;;;;5085321;28;20329;-66
2023/11/18 06:12:40;;;;;;;6.90;5.73;;;4.80;99.90;;;;;;5084985;28;20207;-66
2023/11/18 06:15:14;;;;;;;6.27;5.67;;;4.70;99.90;;;;;;5085117;28;20206;-66
2023/11/18 06:17:41;;;;;;;6.67;6.03;;;4.80;99.90;;;;;;5084901;28;20281;-66
2023/11/18 06:20:10;;;;;;;7.20;6.57;;;4.80;99.90;;;;;;5084697;28;20577;-66
2023/11/18 06:22:37;;;;;;;7.17;6.47;;;4.80;99.90;;;;;;5085146;28;20605;-66
2023/11/18 06:25:08;;;;;;;6.87;6.27;;;4.80;99.90;;;;;;5084939;28;20198;-66
2023/11/18 06:27:35;;;;;;;7.60;6.77;;;4.70;99.90;;;;;;5084665;28;20244;-66
2023/11/18 06:30:02;;;;;;;6.90;6.13;;;4.70;99.90;;;;;;5084511;28;20674;-66
2023/11/18 06:32:30;;;;;;;7.37;6.67;;;4.70;99.90;;;;;;5084305;28;20464;-66
2023/11/18 06:34:58;;;;;;;7.30;6.60;;;4.70;99.90;;;;;;5084970;28;20203;-66
2023/11/18 06:37:25;;;;;;;9.70;6.60;;;4.70;99.90;;;;;;5083548;28;20203;-66
2023/11/18 06:39:52;;;;;;;7.47;6.63;;;4.70;99.90;;;;;;5084728;28;20297;-66
2023/11/18 06:42:23;;;;;;;7.07;6.47;;;4.70;99.90;;;;;;5084943;28;20261;-66
2023/11/18 06:44:50;;;;;;;7.80;7.00;;;4.70;99.90;;;;;;5085447;28;20225;-66
2023/11/18 06:47:19;;;;;;;6.73;6.13;;;4.70;99.90;;;;;;5084764;28;20245;-66
2023/11/18 06:49:47;;;;;;;7.30;6.50;;;4.70;99.90;;;;;;5085026;28;20242;-66
2023/11/18 06:52:14;;;;;;;8.57;6.50;;;4.70;99.90;;;;;;5084738;28;20207;-66
2023/11/18 06:54:42;;;;;;;7.00;6.40;;;4.80;99.90;;;;;;5084311;28;20246;-66
2023/11/18 06:57:08;;;;;;;7.70;6.27;;;4.80;99.90;;;;;;5070947;28;20261;-65
2023/11/18 06:59:37;;;;;;;6.47;5.73;;;4.90;99.90;;;;;;5084399;28;20750;-65
2023/11/18 07:02:05;;;;;;;7.27;6.30;;;5.00;99.90;;;;;;5084217;28;20207;-66
2023/11/18 07:04:32;;;;;;;7.27;6.57;;;4.90;99.90;;;;;;5084566;28;20203;-66
2023/11/18 07:06:59;;;;;;;8.30;6.60;;;4.90;99.90;;;;;;5084582;28;20243;-66
2023/11/18 07:09:26;;;;;;;6.70;6.10;;;4.90;99.90;;;;;;5084504;28;20233;-65
2023/11/18 07:11:55;;;;;;;7.40;6.60;;;4.90;99.90;;;;;;5084547;28;20336;-65
2023/11/18 07:14:22;;;;;;;6.80;6.20;;;4.90;99.90;;;;;;5084067;28;20247;-66
2023/11/18 07:16:50;;;;;;;6.97;6.27;;;4.90;99.90;;;;;;5084242;28;20295;-66
2023/11/18 07:19:19;;;;;;;6.77;6.20;;;4.90;99.90;;;;;;5084320;28;20213;-65
2023/11/18 07:21:46;;;;;;;7.13;6.43;;;4.90;99.90;;;;;;5084366;28;20203;-65
2023/11/18 07:24:13;;;;;;;6.93;6.33;;;4.90;99.90;;;;;;5084368;28;20294;-65
2023/11/18 07:26:40;;;;;;;6.80;6.10;;;4.90;99.90;;;;;;5064112;28;20203;-65
2023/11/18 07:29:08;;;;;;;6.90;6.30;;;4.90;99.90;;;;;;5079557;28;20801;-65
2023/11/18 07:31:35;;;;;;;6.73;6.17;;;4.90;99.90;;;;;;5104259;28;20205;-66
2023/11/18 07:34:05;;;;;;;9.87;6.87;;;4.90;99.90;;;;;;5088433;28;20199;-66
2023/11/18 07:36:32;;;;;;;7.30;6.60;;;4.90;99.90;;;;;;5084031;28;20241;-65
2023/11/18 07:39:00;;;;;;;7.10;6.40;;;4.90;99.90;;;;;;5083775;28;20216;-65
2023/11/18 07:41:27;;;;;;;7.63;6.47;;;4.90;99.90;;;;;;5083750;28;20709;-66
2023/11/18 07:43:55;;;;;;;7.23;6.63;;;4.90;99.90;;;;;;5083806;28;20231;-65
2023/11/18 07:46:23;;;;;;;8.07;6.90;;;4.80;99.90;;;;;;5085055;28;20626;-65
2023/11/18 07:48:51;;;;;;;7.77;7.07;;;4.90;99.90;;;;;;5106959;28;20205;-66
2023/11/18 07:51:21;;;;;;;9.20;6.47;;;4.90;99.90;;;;;;5103652;28;20213;-66
2023/11/18 07:53:48;;;;;;;7.57;6.93;;;4.80;99.90;;;;;;5088002;28;20218;-66
2023/11/18 07:56:16;;;;;;;9.27;7.80;;;4.80;99.90;;;;;;5087794;28;20195;-65
2023/11/18 07:58:45;;;;;;;8.27;6.80;;;4.80;99.90;;;;;;5085647;28;20242;-66
2023/11/18 08:01:12;;;;;;;8.80;7.90;;;4.90;99.90;;;;;;5087379;28;20198;-66
2023/11/18 08:03:41;;;;;;;8.53;7.03;;;4.90;99.90;;;;;;5087468;28;20733;-66
2023/11/18 08:06:08;;;;;;;8.43;6.97;;;5.00;99.90;;;;;;5087106;28;20919;-66
2023/11/18 08:08:37;;;;;;;8.23;6.47;;;5.00;99.90;;;;;;5087481;28;20262;-66
2023/11/18 08:11:05;;;;;;;10.00;7.30;;;5.00;99.90;;;;;;5087623;28;20226;-66
2023/11/18 08:13:32;;;;;;;7.40;6.73;;;5.00;99.90;;;;;;5087112;28;20249;-66
2023/11/18 08:15:59;;;;;;;8.93;7.17;;;5.00;99.90;;;;;;5086995;28;20217;-66
2023/11/18 08:18:27;;;;;;;7.80;6.77;;;5.00;99.90;;;;;;5087349;28;20232;-66
2023/11/18 08:20:54;;;;;;;9.17;7.03;;;4.90;99.90;;;;;;5087271;28;20214;-66
2023/11/18 08:23:21;;;;;;;8.07;7.27;;;4.90;99.90;;;;;;5087400;28;20210;-66
2023/11/18 08:25:50;;;;;;;9.73;7.47;;;4.90;99.90;;;;;;5087374;28;20230;-66
2023/11/18 08:28:17;;;;;;;8.43;6.83;;;5.00;99.90;;;;;;5087214;28;20224;-65
2023/11/18 08:30:44;;;;;;;9.03;7.17;;;4.90;99.90;;;;;;5086909;28;20237;-65
2023/11/18 08:33:11;;;;;;;9.13;6.90;;;5.00;99.90;;;;;;5087023;28;20199;-65
2023/11/18 08:35:38;;;;;;;7.23;6.47;;;5.00;99.90;;;;;;5086941;28;20298;-65
2023/11/18 08:38:07;;;;;;;10.00;6.90;;;5.00;99.90;;;;;;5086923;28;20760;-65
2023/11/18 08:40:36;;;;;;;9.17;7.50;;;5.00;99.90;;;;;;5086669;28;20227;-66
2023/11/18 08:43:07;;;;;;;9.50;8.10;;;5.00;99.90;;;;;;5087053;28;20295;-65
2023/11/18 08:45:34;;;;;;;8.17;7.37;;;5.10;99.90;;;;;;5086606;28;20202;-66
2023/11/18 08:48:06;;;;;;;9.77;7.60;;;5.20;99.90;;;;;;5086713;28;20210;-65
2023/11/18 08:50:34;;;;;;;8.60;7.70;;;5.20;99.90;;;;;;5086613;28;20219;-65
2023/11/18 08:53:04;;;;;;;9.63;7.80;;;5.20;99.90;;;;;;5087070;28;20394;-66
2023/11/18 08:55:41;;;;;;;8.53;7.50;;;5.30;99.90;;;;;;5086708;28;20202;-66
2023/11/18 08:58:19;;;;;;;10.63;7.43;;;5.30;99.90;;;;;;5086732;28;20191;-66
2023/11/18 09:00:52;;;;;;;10.90;7.40;;;5.40;99.90;;;;;;5085844;28;20205;-66
2023/11/18 09:03:27;;;;;;;9.30;7.43;;;5.50;99.90;;;;;;5086639;28;20290;-67
2023/11/18 09:05:58;;;;;;;8.50;7.60;;;5.50;99.90;;;;;;5086566;28;20211;-67
2023/11/18 09:08:26;;;;;;;8.83;7.53;;;5.50;99.90;;;;;;5086014;28;20358;-65
2023/11/18 09:10:54;;;;;;;8.40;7.50;;;5.50;99.90;;;;;;5085695;28;20261;-65
2023/11/18 09:13:25;;;;;;;9.30;7.27;;;5.50;99.90;;;;;;5086527;28;20235;-65
2023/11/18 09:15:52;;;;;;;8.80;7.07;;;5.50;99.90;;;;;;5086277;28;20672;-66
2023/11/18 09:18:21;;;;;;;7.87;7.07;;;5.40;99.90;;;;;;5086467;28;20293;-65
2023/11/18 09:20:48;;;;;;;7.83;6.40;;;5.40;99.90;;;;;;5086689;28;20222;-66
2023/11/18 09:23:16;;;;;;;8.93;7.60;;;5.40;99.90;;;;;;5086340;28;20242;-66
2023/11/18 09:25:46;;;;;;;8.17;7.10;;;5.40;99.90;;;;;;5086589;28;20207;-66
2023/11/18 09:28:14;;;;;;;8.20;7.40;;;5.40;99.90;;;;;;5086030;28;20604;-66
2023/11/18 09:30:49;;;;;;;7.30;6.60;;;5.40;99.90;;;;;;5085641;28;20230;-65
2023/11/18 09:33:28;;;;;;;6.47;5.87;;;5.50;99.90;;;;;;5086130;28;20217;-65
2023/11/18 09:35:58;;;;;;;9.40;6.53;;;5.50;99.90;;;;;;5085444;28;20286;-65
2023/11/18 09:38:29;;;;;;;8.40;7.33;;;5.50;99.90;;;;;;5084305;28;20217;-65
2023/11/18 09:40:57;;;;;;;7.97;6.80;;;5.50;99.90;;;;;;5084394;28;20229;-65
2023/11/18 09:43:26;;;;;;;6.53;5.93;;;5.50;99.90;;;;;;5084226;28;20295;-65
2023/11/18 09:45:56;;;;;;;7.60;6.37;;;5.50;99.90;;;;;;5064475;28;20397;-66
2023/11/18 09:48:26;;;;;;;9.07;7.17;;;5.50;99.90;;;;;;5072618;28;20190;-66
2023/11/18 09:50:53;;;;;;;7.57;6.57;;;5.60;99.90;;;;;;5084408;28;20227;-66
2023/11/18 09:53:25;;;;;;;10.50;6.67;;;5.60;99.90;;;;;;5084959;28;20283;-66
2023/11/18 09:56:01;;;;;;;7.90;6.33;;;5.60;99.90;;;;;;5084748;28;20203;-66
2023/11/18 09:58:49;;;;;;;7.13;6.40;;;5.70;99.90;;;;;;5084147;28;20698;-66
2023/11/18 10:01:21;;;;;;;7.87;7.07;;;5.70;99.90;;;;;;5084165;28;20207;-66
2023/11/18 10:03:48;;;;;;;6.57;5.97;;;5.70;99.90;;;;;;5084327;28;20198;-66
2023/11/18 10:06:16;;;;;;;6.97;6.30;;;5.70;99.90;;;;;;5084395;28;20205;-66
2023/11/18 10:08:45;;;;;;;8.37;7.30;;;5.70;99.90;;;;;;5083471;28;20779;-66
2023/11/18 10:11:13;;;;;;;7.10;6.40;;;5.70;99.90;;;;;;5083534;28;20274;-66
2023/11/18 10:13:44;;;;;;;7.90;6.90;;;5.80;99.90;;;;;;5083666;28;20198;-66
2023/11/18 10:16:11;;;;;;;7.50;6.70;;;5.80;99.90;;;;;;5083859;28;20191;-66
2023/11/18 10:18:48;;;;;;;6.63;6.03;;;5.90;99.90;;;;;;5083474;28;20230;-66
2023/11/18 10:21:18;;;;;;;6.70;6.10;;;5.80;99.90;;;;;;5083086;28;20293;-66
2023/11/18 10:24:00;;;;;;;6.93;6.17;;;5.80;99.90;;;;;;5066667;28;20221;-66
2023/11/18 10:26:28;;;;;;;6.50;5.90;;;5.90;99.90;;;;;;5063215;28;20221;-65
2023/11/18 10:28:55;;;;;;;5.87;5.37;;;5.80;99.90;;;;;;5063376;28;20230;-65
2023/11/18 10:31:24;;;;;;;6.27;5.73;;;5.80;99.90;;;;;;5071043;28;20227;-66
2023/11/18 10:33:52;;;;;;;7.03;6.03;;;5.90;99.90;;;;;;5083526;28;20267;-66
2023/11/18 10:36:23;;;;;;;5.40;5.00;;;5.90;99.90;;;;;;5082918;28;20237;-66
2023/11/18 10:38:51;;;;;;;5.77;5.23;;;5.80;99.90;;;;;;5082585;28;20378;-66
2023/11/18 10:41:19;;;;;;;5.47;4.97;;;5.90;99.90;;;;;;5068262;28;20231;-67
2023/11/18 10:43:48;;;;;;;5.73;5.23;;;5.90;99.90;;;;;;5076768;28;20685;-67
2023/11/18 10:46:15;;;;;;;5.87;4.83;;;5.90;99.90;;;;;;5082956;28;20199;-67
2023/11/18 10:48:43;;;;;;;5.17;4.77;;;5.90;99.90;;;;;;5083381;28;20290;-66
2023/11/18 10:51:13;;;;;;;6.10;5.20;;;5.90;99.90;;;;;;5082981;28;20779;-68
2023/11/18 10:53:42;;;;;;;5.80;4.90;;;6.00;99.90;;;;;;5083044;28;20207;-68
2023/11/18 10:56:24;;;;;;;5.37;4.77;;;5.90;99.90;;;;;;5083270;28;20226;-68
2023/11/18 10:58:51;;;;;;;5.70;4.90;;;5.90;99.90;;;;;;5082995;28;20195;-68
2023/11/18 11:01:28;;;;;;;6.93;5.17;;;5.80;99.90;;;;;;5083054;28;20218;-67
2023/11/18 11:03:56;;;;;;;6.77;6.13;;;5.90;99.90;;;;;;5083390;28;20217;-68
2023/11/18 11:06:25;;;;;;;7.30;6.53;;;5.90;99.90;;;;;;5082960;28;20198;-67
2023/11/18 11:08:53;;;;;;;7.83;7.03;;;5.90;99.90;;;;;;5083158;28;20324;-67
2023/11/18 11:11:23;;;;;;;11.47;7.60;;;5.90;99.90;;;;;;5082493;28;20234;-67
2023/11/18 11:13:55;;;;;;;10.93;7.53;;;5.80;99.90;;;;;;5082489;28;20734;-68
2023/11/18 11:16:29;;;;;;;10.17;7.37;;;5.80;99.90;;;;;;5082855;28;20285;-67
2023/11/18 11:18:58;;;;;;;8.50;7.60;;;5.80;99.90;;;;;;5082757;28;20188;-68
2023/11/18 11:21:29;;;;;;;8.43;7.17;;;5.80;99.90;;;;;;5082210;28;20211;-67
2023/11/18 11:24:02;;;;;;;7.93;7.10;;;5.90;99.90;;;;;;5085040;28;20203;-68
2023/11/18 11:26:43;;;;;;;7.83;6.90;;;5.90;99.90;;;;;;5086808;28;20198;-68
2023/11/18 11:29:23;;;;;;;10.00;7.03;;;5.90;99.90;;;;;;5086699;28;20195;-68
2023/11/18 11:32:04;;;;;;;9.60;6.93;;;5.90;99.90;;;;;;5085813;28;20319;-68
2023/11/18 11:34:32;;;;;;;7.73;6.93;;;6.00;99.90;;;;;;5086945;28;20202;-68
2023/11/18 11:37:01;;;;;;;7.33;6.53;;;6.00;99.90;;;;;;5086118;28;20215;-67
2023/11/18 11:39:30;;;;;;;7.90;7.07;;;6.00;99.90;;;;;;5086673;28;20322;-68
2023/11/18 11:41:59;;;;;;;8.57;6.40;;;6.00;99.90;;;;;;5086228;28;20227;-67
2023/11/18 11:44:29;;;;;;;6.90;6.30;;;6.00;99.90;;;;;;5086469;28;20209;-67
2023/11/18 11:46:59;;;;;;;6.70;6.10;;;6.10;99.90;;;;;;5086817;28;20241;-68
2023/11/18 11:49:29;;;;;;;6.50;5.73;;;6.10;99.90;;;;;;5086942;28;20307;-68
2023/11/18 11:52:04;;;;;;;6.13;5.53;;;6.10;99.90;;;;;;5086971;28;20320;-68
2023/11/18 11:54:38;;;;;;;8.50;7.63;;;6.20;99.90;;;;;;5086350;28;20200;-67
2023/11/18 11:57:05;;;;;;;5.97;5.37;;;6.10;99.90;;;;;;5086725;28;20601;-67
2023/11/18 11:59:58;;;;;;;6.40;5.80;;;6.10;99.90;;;;;;5086326;28;20677;-68
2023/11/18 12:02:28;;;;;;;6.00;5.40;;;6.10;99.90;;;;;;5085933;28;20214;-68
2023/11/18 12:04:58;;;;;;;6.00;5.50;;;6.20;99.90;;;;;;5086203;28;20201;-67
2023/11/18 12:07:28;;;;;;;5.53;5.00;;;6.20;99.90;;;;;;5085645;28;20249;-68
2023/11/18 12:09:59;;;;;;;6.60;5.23;;;6.20;99.90;;;;;;5086059;28;20297;-68
2023/11/18 12:12:27;;;;;;;5.07;4.67;;;6.30;99.90;;;;;;5086054;28;21001;-68
2023/11/18 12:14:57;;;;;;;5.70;5.20;;;6.30;99.90;;;;;;5086446;28;20296;-68
2023/11/18 12:17:28;;;;;;;5.43;4.93;;;6.40;99.90;;;;;;5085684;28;20896;-68
2023/11/18 12:19:58;;;;;;;4.93;4.53;;;6.40;99.90;;;;;;5086139;28;20649;-68
2023/11/18 12:22:30;;;;;;;4.67;4.27;;;6.40;99.90;;;;;;5086069;28;20229;-67
2023/11/18 12:25:36;;;;;;;4.97;4.57;;;6.30;99.90;;;;;;5085674;28;20879;-67
2023/11/18 12:28:16;;;;;;;5.67;5.17;;;6.20;99.90;;;;;;5034708;28;20696;-68
2023/11/18 12:30:52;;;;;;;4.73;4.33;;;6.30;99.90;;;;;;5084968;28;20230;-68
2023/11/18 12:33:22;;;;;;;5.00;4.50;;;6.40;99.90;;;;;;5094555;28;20663;-68
2023/11/18 12:36:33;;;;;;;5.70;4.53;;;6.40;99.90;;;;;;5092465;28;20612;-68
2023/11/18 12:39:38;;;;;;;4.70;4.30;;;6.60;99.90;;;;;;5065089;28;20206;-67
2023/11/18 12:42:07;;;;;;;4.77;4.37;;;6.70;99.90;;;;;;5085743;28;20214;-67
2023/11/18 12:44:39;;;;;;;4.23;3.87;;;6.90;99.90;;;;;;5085087;28;20301;-67
2023/11/18 12:47:14;;;;;;;4.50;4.20;;;7.00;99.90;;;;;;5065368;28;20206;-68
2023/11/18 12:49:42;;;;;;;4.07;3.77;;;7.00;99.90;;;;;;5064722;28;20206;-68
2023/11/18 12:52:09;;;;;;;4.23;3.93;;;7.10;99.90;;;;;;5073048;28;20708;-68
2023/11/18 12:54:43;;;;;;;4.37;3.97;;;7.20;99.90;;;;;;5085664;28;20214;-65
2023/11/18 12:57:13;;;;;;;4.30;3.90;;;7.30;99.90;;;;;;5085443;28;20206;-65
2023/11/18 12:59:41;;;;;;;3.90;3.40;;;7.60;99.90;;;;;;5085058;28;20195;-65
2023/11/18 13:02:13;;;;;;;4.17;3.87;;;7.70;99.90;;;;;;5085009;28;20326;-66
2023/11/18 13:04:41;;;;;;;4.53;3.87;;;7.80;99.90;;;;;;5085303;28;20203;-66
2023/11/18 13:07:11;;;;;;;4.10;3.80;;;7.90;99.90;;;;;;5085235;28;20230;-66
2023/11/18 13:09:40;;;;;;;3.90;3.60;;;7.90;99.90;;;;;;5085147;28;20206;-66